Huvudsida
METAR-TAF:

METAR-TAF

Flygplatser :

Karachi, Pakistan

latitud: 24-54N, longitud: 067-08E, höjd: 21 m

Aktuellt väderrapport

Denna rapport gjordes för 44 minuter sedan, klockan 23:55 UTC
Vind 6 kt från väst
Temperatur 20°C
Fuktighet 88%
Tryck 1011 hPa
Sikt: 4000 m
Få moln på en höjd av 3000 ft
rök

METAR: OPKC 092355Z 26006KT 4000 FU FEW030 20/18 Q1011 NOSIG

Tid: 05:39 (00:39 UTC)

Väderprognos

Denna rapport gjordes för 3 timmar och 9 minuter sedan, klockan 21:30 UTC
Prognos gäller från 10 kl. 00 UTC till 10 kl. 09 UTC
Vind 8 kt från väst/sydväst
Sikt: 6000 m
Temporärt
från 10 kl. 00 UTC till 10 kl. 04 UTC
Vind 5 kt från väst
Sikt: 2500 m
Spridda moln på en höjd av 2500 ft
Spridda moln på en höjd av 10000 ft
rök, lätt regn, duggregn

TAF: OPKC 092130Z 1000/1009 24008KT 6000 NSC TEMPO 1000/1004 27005KT 2500 FU -RADZ SCT025 SCT100

Aktuella väderrapporter och prognoser från 4000 flygplatser (METAR- och TAF-rapporter).

De tillgängliga stationerna syns som gula och röda prickar på kartan.

För musen över prickarna för att se namnen på stationerna.

Klicka sedan för att få väderrapporter och prognoser.

För att ändra kartan: Klicka på de gröna knapparna med ett svart kors på för att zooma in; den gröna knappen med ett streck på för att zooma ut; eller på de gröna pilarna för angränsande kartor.


METAR-TAF: